sensor_id;sensor_type;location;lat;lon;timestamp;P1;durP1;ratioP1;P2;durP2;ratioP2
76105;SDS011;64832;45.274;5.880;2022-12-18T09:25:49;7.65;;;5.70;;
76105;SDS011;64832;45.274;5.880;2022-12-18T09:28:18;7.20;;;5.85;;
76105;SDS011;64832;45.274;5.880;2022-12-18T09:30:46;8.65;;;5.70;;
76105;SDS011;64832;45.274;5.880;2022-12-18T09:33:12;10.30;;;5.90;;
76105;SDS011;64832;45.274;5.880;2022-12-18T09:35:38;7.97;;;5.78;;
76105;SDS011;64832;45.274;5.880;2022-12-18T09:38:05;13.27;;;6.03;;
76105;SDS011;64832;45.274;5.880;2022-12-18T09:40:35;14.52;;;5.50;;
76105;SDS011;64832;45.274;5.880;2022-12-18T09:43:05;8.02;;;5.45;;
76105;SDS011;64832;45.274;5.880;2022-12-18T09:45:39;7.72;;;5.13;;
76105;SDS011;64832;45.274;5.880;2022-12-18T09:48:14;6.10;;;5.30;;
76105;SDS011;64832;45.274;5.880;2022-12-18T09:50:43;11.80;;;5.60;;
76105;SDS011;64832;45.274;5.880;2022-12-18T09:53:21;7.65;;;5.43;;
76105;SDS011;64832;45.274;5.880;2022-12-18T09:55:51;9.30;;;5.28;;
76105;SDS011;64832;45.274;5.880;2022-12-18T10:00:54;6.35;;;5.13;;
76105;SDS011;64832;45.274;5.880;2022-12-18T10:03:20;7.57;;;4.97;;
76105;SDS011;64832;45.274;5.880;2022-12-18T10:08:13;5.85;;;5.00;;
76105;SDS011;64832;45.274;5.880;2022-12-18T10:10:54;12.90;;;4.72;;
76105;SDS011;64832;45.274;5.880;2022-12-18T10:13:42;7.43;;;4.90;;
76105;SDS011;64832;45.274;5.880;2022-12-18T10:16:19;7.50;;;4.75;;
76105;SDS011;64832;45.274;5.880;2022-12-18T10:21:42;5.25;;;4.55;;
76105;SDS011;64832;45.274;5.880;2022-12-18T10:26:51;7.15;;;4.50;;
76105;SDS011;64832;45.274;5.880;2022-12-18T10:29:18;7.95;;;4.95;;
76105;SDS011;64832;45.274;5.880;2022-12-18T10:31:44;10.90;;;4.60;;
76105;SDS011;64832;45.274;5.880;2022-12-18T10:34:10;9.57;;;5.18;;
76105;SDS011;64832;45.274;5.880;2022-12-18T10:36:36;7.20;;;4.68;;
76105;SDS011;64832;45.274;5.880;2022-12-18T10:39:15;9.32;;;4.32;;
76105;SDS011;64832;45.274;5.880;2022-12-18T10:41:43;5.88;;;4.60;;
76105;SDS011;64832;45.274;5.880;2022-12-18T10:44:10;5.78;;;4.45;;
76105;SDS011;64832;45.274;5.880;2022-12-18T10:46:50;9.63;;;4.75;;
76105;SDS011;64832;45.274;5.880;2022-12-18T10:51:48;8.25;;;4.88;;
76105;SDS011;64832;45.274;5.880;2022-12-18T10:54:15;9.88;;;4.68;;
76105;SDS011;64832;45.274;5.880;2022-12-18T10:56:44;15.90;;;4.60;;
76105;SDS011;64832;45.274;5.880;2022-12-18T10:59:11;6.63;;;4.32;;
76105;SDS011;64832;45.274;5.880;2022-12-18T11:04:50;7.00;;;4.50;;
76105;SDS011;64832;45.274;5.880;2022-12-18T11:07:17;7.78;;;4.55;;
76105;SDS011;64832;45.274;5.880;2022-12-18T11:09:42;7.47;;;4.00;;
76105;SDS011;64832;45.274;5.880;2022-12-18T11:12:15;10.02;;;4.20;;
76105;SDS011;64832;45.274;5.880;2022-12-18T11:14:44;9.55;;;4.18;;
76105;SDS011;64832;45.274;5.880;2022-12-18T11:20:04;7.05;;;4.20;;
76105;SDS011;64832;45.274;5.880;2022-12-18T11:22:34;7.45;;;4.35;;
76105;SDS011;64832;45.274;5.880;2022-12-18T11:27:36;5.35;;;4.10;;
76105;SDS011;64832;45.274;5.880;2022-12-18T11:32:43;6.00;;;4.07;;
76105;SDS011;64832;45.274;5.880;2022-12-18T11:35:17;6.70;;;4.35;;
76105;SDS011;64832;45.274;5.880;2022-12-18T11:37:49;7.88;;;4.15;;
76105;SDS011;64832;45.274;5.880;2022-12-18T11:40:26;8.50;;;4.30;;
76105;SDS011;64832;45.274;5.880;2022-12-18T11:45:41;6.78;;;3.80;;
76105;SDS011;64832;45.274;5.880;2022-12-18T11:48:16;6.65;;;4.07;;
76105;SDS011;64832;45.274;5.880;2022-12-18T11:53:19;6.07;;;3.67;;
76105;SDS011;64832;45.274;5.880;2022-12-18T11:58:46;4.30;;;3.67;;
76105;SDS011;64832;45.274;5.880;2022-12-18T12:02:16;5.43;;;3.78;;
76105;SDS011;64832;45.274;5.880;2022-12-18T12:09:26;7.70;;;3.60;;
76105;SDS011;64832;45.274;5.880;2022-12-18T12:23:26;9.95;;;3.53;;
76105;SDS011;64832;45.274;5.880;2022-12-18T12:31:57;11.38;;;3.70;;
76105;SDS011;64832;45.274;5.880;2022-12-18T12:34:48;10.65;;;4.07;;
76105;SDS011;64832;45.274;5.880;2022-12-18T12:40:03;7.03;;;3.15;;
76105;SDS011;64832;45.274;5.880;2022-12-18T12:42:38;7.05;;;2.95;;
76105;SDS011;64832;45.274;5.880;2022-12-18T12:45:30;7.60;;;2.78;;
76105;SDS011;64832;45.274;5.880;2022-12-18T12:48:04;6.75;;;3.00;;
76105;SDS011;64832;45.274;5.880;2022-12-18T12:50:36;6.93;;;5.90;;
76105;SDS011;64832;45.274;5.880;2022-12-18T12:53:06;10.90;;;5.47;;
76105;SDS011;64832;45.274;5.880;2022-12-18T12:55:36;10.20;;;3.80;;
76105;SDS011;64832;45.274;5.880;2022-12-18T12:58:11;14.90;;;3.80;;
76105;SDS011;64832;45.274;5.880;2022-12-18T13:03:54;7.60;;;3.28;;
76105;SDS011;64832;45.274;5.880;2022-12-18T13:09:24;5.28;;;3.13;;
76105;SDS011;64832;45.274;5.880;2022-12-18T13:11:49;10.05;;;3.38;;
76105;SDS011;64832;45.274;5.880;2022-12-18T13:14:34;5.18;;;3.00;;
76105;SDS011;64832;45.274;5.880;2022-12-18T13:19:52;6.53;;;3.15;;
76105;SDS011;64832;45.274;5.880;2022-12-18T13:22:35;11.38;;;3.47;;
76105;SDS011;64832;45.274;5.880;2022-12-18T13:25:26;6.60;;;3.20;;
76105;SDS011;64832;45.274;5.880;2022-12-18T13:35:38;7.18;;;2.90;;
76105;SDS011;64832;45.274;5.880;2022-12-18T13:38:34;10.23;;;3.15;;
76105;SDS011;64832;45.274;5.880;2022-12-18T13:41:02;20.55;;;4.45;;
76105;SDS011;64832;45.274;5.880;2022-12-18T13:46:00;11.75;;;2.72;;
76105;SDS011;64832;45.274;5.880;2022-12-18T13:48:29;16.65;;;3.22;;
76105;SDS011;64832;45.274;5.880;2022-12-18T13:50:58;9.60;;;2.80;;
76105;SDS011;64832;45.274;5.880;2022-12-18T13:56:42;5.72;;;2.67;;
76105;SDS011;64832;45.274;5.880;2022-12-18T14:01:47;8.90;;;2.70;;
76105;SDS011;64832;45.274;5.880;2022-12-18T14:04:37;16.45;;;3.17;;
76105;SDS011;64832;45.274;5.880;2022-12-18T14:07:03;7.03;;;2.63;;
76105;SDS011;64832;45.274;5.880;2022-12-18T14:09:35;7.35;;;2.67;;
76105;SDS011;64832;45.274;5.880;2022-12-18T14:12:12;7.13;;;2.95;;
76105;SDS011;64832;45.274;5.880;2022-12-18T14:17:55;4.63;;;2.65;;
76105;SDS011;64832;45.274;5.880;2022-12-18T14:20:24;3.80;;;2.42;;
76105;SDS011;64832;45.274;5.880;2022-12-18T14:22:50;5.88;;;2.50;;
76105;SDS011;64832;45.274;5.880;2022-12-18T14:25:20;5.78;;;2.13;;
76105;SDS011;64832;45.274;5.880;2022-12-18T14:32:59;7.10;;;2.63;;
76105;SDS011;64832;45.274;5.880;2022-12-18T14:35:36;7.10;;;2.15;;
76105;SDS011;64832;45.274;5.880;2022-12-18T14:43:35;4.78;;;2.50;;
76105;SDS011;64832;45.274;5.880;2022-12-18T14:46:02;3.08;;;2.42;;
76105;SDS011;64832;45.274;5.880;2022-12-18T14:48:48;3.47;;;2.30;;
76105;SDS011;64832;45.274;5.880;2022-12-18T14:51:20;2.58;;;2.03;;
76105;SDS011;64832;45.274;5.880;2022-12-18T14:53:48;9.10;;;2.40;;
76105;SDS011;64832;45.274;5.880;2022-12-18T14:56:22;5.85;;;2.72;;
76105;SDS011;64832;45.274;5.880;2022-12-18T14:59:03;3.47;;;2.03;;
76105;SDS011;64832;45.274;5.880;2022-12-18T15:01:37;2.92;;;2.38;;
76105;SDS011;64832;45.274;5.880;2022-12-18T15:07:13;4.70;;;2.33;;
76105;SDS011;64832;45.274;5.880;2022-12-18T15:09:41;3.25;;;2.28;;
76105;SDS011;64832;45.274;5.880;2022-12-18T15:12:24;5.57;;;2.10;;
76105;SDS011;64832;45.274;5.880;2022-12-18T15:14:58;3.13;;;2.10;;
76105;SDS011;64832;45.274;5.880;2022-12-18T15:17:23;12.07;;;2.40;;
76105;SDS011;64832;45.274;5.880;2022-12-18T15:19:50;3.67;;;2.60;;
76105;SDS011;64832;45.274;5.880;2022-12-18T15:22:27;4.38;;;2.30;;
76105;SDS011;64832;45.274;5.880;2022-12-18T15:24:55;9.00;;;2.65;;
76105;SDS011;64832;45.274;5.880;2022-12-18T15:27:35;4.50;;;2.30;;
76105;SDS011;64832;45.274;5.880;2022-12-18T15:32:34;5.72;;;2.35;;
76105;SDS011;64832;45.274;5.880;2022-12-18T15:35:23;4.47;;;2.40;;
76105;SDS011;64832;45.274;5.880;2022-12-18T15:37:48;5.22;;;2.40;;
76105;SDS011;64832;45.274;5.880;2022-12-18T15:40:15;4.47;;;2.40;;
76105;SDS011;64832;45.274;5.880;2022-12-18T15:42:42;7.40;;;2.45;;
76105;SDS011;64832;45.274;5.880;2022-12-18T15:45:27;4.18;;;2.45;;
76105;SDS011;64832;45.274;5.880;2022-12-18T15:47:52;5.32;;;2.40;;
76105;SDS011;64832;45.274;5.880;2022-12-18T15:50:18;4.53;;;2.38;;
76105;SDS011;64832;45.274;5.880;2022-12-18T15:52:44;4.40;;;2.80;;
76105;SDS011;64832;45.274;5.880;2022-12-18T15:55:15;5.47;;;2.83;;
76105;SDS011;64832;45.274;5.880;2022-12-18T15:58:01;3.60;;;2.55;;
76105;SDS011;64832;45.274;5.880;2022-12-18T16:00:26;3.13;;;2.58;;
76105;SDS011;64832;45.274;5.880;2022-12-18T16:02:52;3.67;;;2.65;;
76105;SDS011;64832;45.274;5.880;2022-12-18T16:05:18;3.78;;;2.92;;
76105;SDS011;64832;45.274;5.880;2022-12-18T16:07:45;5.50;;;2.63;;
76105;SDS011;64832;45.274;5.880;2022-12-18T16:10:11;3.90;;;2.90;;
76105;SDS011;64832;45.274;5.880;2022-12-18T16:12:37;5.80;;;3.22;;
76105;SDS011;64832;45.274;5.880;2022-12-18T16:15:03;8.23;;;3.10;;
76105;SDS011;64832;45.274;5.880;2022-12-18T16:17:30;4.20;;;3.03;;
76105;SDS011;64832;45.274;5.880;2022-12-18T16:19:55;4.22;;;3.08;;
76105;SDS011;64832;45.274;5.880;2022-12-18T16:22:22;3.65;;;3.10;;
76105;SDS011;64832;45.274;5.880;2022-12-18T16:24:50;4.72;;;3.03;;
76105;SDS011;64832;45.274;5.880;2022-12-18T16:27:16;4.70;;;3.03;;
76105;SDS011;64832;45.274;5.880;2022-12-18T16:29:42;4.88;;;2.92;;
76105;SDS011;64832;45.274;5.880;2022-12-18T16:32:08;4.18;;;3.35;;
76105;SDS011;64832;45.274;5.880;2022-12-18T16:34:38;5.93;;;3.00;;
76105;SDS011;64832;45.274;5.880;2022-12-18T16:37:04;7.32;;;4.13;;
76105;SDS011;64832;45.274;5.880;2022-12-18T16:39:31;5.80;;;3.78;;
76105;SDS011;64832;45.274;5.880;2022-12-18T16:41:59;7.00;;;3.35;;
76105;SDS011;64832;45.274;5.880;2022-12-18T16:44:25;8.43;;;3.72;;
76105;SDS011;64832;45.274;5.880;2022-12-18T16:46:51;5.85;;;4.60;;
76105;SDS011;64832;45.274;5.880;2022-12-18T16:49:17;5.05;;;4.10;;
76105;SDS011;64832;45.274;5.880;2022-12-18T16:51:43;5.85;;;4.40;;
76105;SDS011;64832;45.274;5.880;2022-12-18T16:54:11;6.65;;;4.25;;
76105;SDS011;64832;45.274;5.880;2022-12-18T16:56:36;6.90;;;4.50;;
76105;SDS011;64832;45.274;5.880;2022-12-18T16:59:02;7.18;;;4.50;;
76105;SDS011;64832;45.274;5.880;2022-12-18T17:01:28;8.32;;;4.72;;
76105;SDS011;64832;45.274;5.880;2022-12-18T17:03:58;6.38;;;4.75;;
76105;SDS011;64832;45.274;5.880;2022-12-18T17:06:26;8.00;;;5.07;;
76105;SDS011;64832;45.274;5.880;2022-12-18T17:08:57;7.60;;;4.93;;
76105;SDS011;64832;45.274;5.880;2022-12-18T17:11:23;12.98;;;8.18;;
76105;SDS011;64832;45.274;5.880;2022-12-18T17:13:50;7.65;;;6.22;;
76105;SDS011;64832;45.274;5.880;2022-12-18T17:16:16;10.18;;;6.93;;
76105;SDS011;64832;45.274;5.880;2022-12-18T17:18:42;12.38;;;6.63;;
76105;SDS011;64832;45.274;5.880;2022-12-18T17:21:08;10.27;;;6.68;;
76105;SDS011;64832;45.274;5.880;2022-12-18T17:23:34;13.68;;;10.27;;
76105;SDS011;64832;45.274;5.880;2022-12-18T17:26:01;15.40;;;10.63;;
76105;SDS011;64832;45.274;5.880;2022-12-18T17:28:28;11.75;;;10.30;;
76105;SDS011;64832;45.274;5.880;2022-12-18T17:30:54;11.48;;;10.18;;
76105;SDS011;64832;45.274;5.880;2022-12-18T17:33:20;12.93;;;9.60;;
76105;SDS011;64832;45.274;5.880;2022-12-18T17:35:46;17.17;;;10.77;;
76105;SDS011;64832;45.274;5.880;2022-12-18T17:38:12;14.07;;;10.43;;
76105;SDS011;64832;45.274;5.880;2022-12-18T17:40:37;13.18;;;9.88;;
76105;SDS011;64832;45.274;5.880;2022-12-18T17:43:04;13.40;;;10.25;;
76105;SDS011;64832;45.274;5.880;2022-12-18T17:45:30;13.40;;;9.80;;
76105;SDS011;64832;45.274;5.880;2022-12-18T17:47:56;13.05;;;9.50;;
76105;SDS011;64832;45.274;5.880;2022-12-18T17:50:21;12.93;;;9.40;;
76105;SDS011;64832;45.274;5.880;2022-12-18T17:52:47;13.23;;;9.48;;
76105;SDS011;64832;45.274;5.880;2022-12-18T17:55:12;14.27;;;10.07;;
76105;SDS011;64832;45.274;5.880;2022-12-18T17:57:37;10.80;;;9.30;;
76105;SDS011;64832;45.274;5.880;2022-12-18T18:00:03;16.48;;;9.30;;
76105;SDS011;64832;45.274;5.880;2022-12-18T18:02:29;12.05;;;9.50;;
76105;SDS011;64832;45.274;5.880;2022-12-18T18:04:55;12.27;;;9.35;;
76105;SDS011;64832;45.274;5.880;2022-12-18T18:07:21;19.83;;;10.15;;
76105;SDS011;64832;45.274;5.880;2022-12-18T18:09:46;12.43;;;9.15;;
76105;SDS011;64832;45.274;5.880;2022-12-18T18:12:11;11.07;;;9.38;;
76105;SDS011;64832;45.274;5.880;2022-12-18T18:14:55;15.52;;;10.27;;
76105;SDS011;64832;45.274;5.880;2022-12-18T18:17:21;13.52;;;9.80;;
76105;SDS011;64832;45.274;5.880;2022-12-18T18:19:46;14.10;;;9.82;;
76105;SDS011;64832;45.274;5.880;2022-12-18T18:22:11;11.13;;;8.65;;
76105;SDS011;64832;45.274;5.880;2022-12-18T18:24:37;11.75;;;8.93;;
76105;SDS011;64832;45.274;5.880;2022-12-18T18:27:02;13.15;;;9.38;;
76105;SDS011;64832;45.274;5.880;2022-12-18T18:29:28;13.25;;;9.25;;
76105;SDS011;64832;45.274;5.880;2022-12-18T18:31:57;13.73;;;9.23;;
76105;SDS011;64832;45.274;5.880;2022-12-18T18:34:24;12.02;;;9.10;;
76105;SDS011;64832;45.274;5.880;2022-12-18T18:36:52;11.75;;;9.20;;
76105;SDS011;64832;45.274;5.880;2022-12-18T18:39:17;11.52;;;8.43;;
76105;SDS011;64832;45.274;5.880;2022-12-18T18:41:43;14.52;;;8.82;;
76105;SDS011;64832;45.274;5.880;2022-12-18T18:44:09;10.50;;;8.73;;
76105;SDS011;64832;45.274;5.880;2022-12-18T18:46:35;8.77;;;7.55;;
76105;SDS011;64832;45.274;5.880;2022-12-18T18:49:00;11.25;;;8.90;;
76105;SDS011;64832;45.274;5.880;2022-12-18T18:51:26;10.90;;;8.07;;
76105;SDS011;64832;45.274;5.880;2022-12-18T18:53:51;9.38;;;7.65;;
76105;SDS011;64832;45.274;5.880;2022-12-18T18:56:18;9.88;;;8.40;;
76105;SDS011;64832;45.274;5.880;2022-12-18T18:58:45;10.00;;;8.20;;
76105;SDS011;64832;45.274;5.880;2022-12-18T19:01:12;10.10;;;8.02;;
76105;SDS011;64832;45.274;5.880;2022-12-18T19:03:40;12.60;;;8.15;;
76105;SDS011;64832;45.274;5.880;2022-12-18T19:06:06;10.75;;;8.20;;
76105;SDS011;64832;45.274;5.880;2022-12-18T19:08:36;12.82;;;8.45;;
76105;SDS011;64832;45.274;5.880;2022-12-18T19:11:02;10.27;;;7.97;;
76105;SDS011;64832;45.274;5.880;2022-12-18T19:13:31;15.15;;;8.30;;
76105;SDS011;64832;45.274;5.880;2022-12-18T19:16:02;10.75;;;8.45;;
76105;SDS011;64832;45.274;5.880;2022-12-18T19:18:31;9.88;;;8.30;;
76105;SDS011;64832;45.274;5.880;2022-12-18T19:20:58;9.70;;;8.15;;
76105;SDS011;64832;45.274;5.880;2022-12-18T19:23:28;9.27;;;8.27;;
76105;SDS011;64832;45.274;5.880;2022-12-18T19:25:54;10.65;;;7.90;;
76105;SDS011;64832;45.274;5.880;2022-12-18T19:28:21;13.20;;;8.40;;
76105;SDS011;64832;45.274;5.880;2022-12-18T19:30:54;10.60;;;8.18;;
76105;SDS011;64832;45.274;5.880;2022-12-18T19:33:22;13.50;;;8.25;;
76105;SDS011;64832;45.274;5.880;2022-12-18T19:35:49;11.57;;;7.68;;
76105;SDS011;64832;45.274;5.880;2022-12-18T19:38:15;12.20;;;8.00;;
76105;SDS011;64832;45.274;5.880;2022-12-18T19:40:40;10.70;;;7.85;;
76105;SDS011;64832;45.274;5.880;2022-12-18T19:43:07;9.25;;;7.70;;
76105;SDS011;64832;45.274;5.880;2022-12-18T19:45:32;10.90;;;7.68;;
76105;SDS011;64832;45.274;5.880;2022-12-18T19:47:58;9.85;;;8.05;;
76105;SDS011;64832;45.274;5.880;2022-12-18T19:50:23;10.52;;;7.93;;
76105;SDS011;64832;45.274;5.880;2022-12-18T19:52:49;8.40;;;7.38;;
76105;SDS011;64832;45.274;5.880;2022-12-18T19:55:14;10.88;;;8.18;;
76105;SDS011;64832;45.274;5.880;2022-12-18T19:57:40;10.68;;;8.55;;
76105;SDS011;64832;45.274;5.880;2022-12-18T20:00:05;10.35;;;8.20;;
76105;SDS011;64832;45.274;5.880;2022-12-18T20:02:31;9.73;;;7.78;;
76105;SDS011;64832;45.274;5.880;2022-12-18T20:05:00;12.52;;;8.60;;
76105;SDS011;64832;45.274;5.880;2022-12-18T20:07:30;10.65;;;7.75;;
76105;SDS011;64832;45.274;5.880;2022-12-18T20:09:56;10.57;;;8.50;;
76105;SDS011;64832;45.274;5.880;2022-12-18T20:12:21;12.35;;;8.20;;
76105;SDS011;64832;45.274;5.880;2022-12-18T20:14:47;8.80;;;7.88;;
76105;SDS011;64832;45.274;5.880;2022-12-18T20:17:12;9.40;;;7.88;;
76105;SDS011;64832;45.274;5.880;2022-12-18T20:19:38;10.18;;;7.65;;
76105;SDS011;64832;45.274;5.880;2022-12-18T20:22:03;9.50;;;7.90;;
76105;SDS011;64832;45.274;5.880;2022-12-18T20:24:29;10.70;;;7.63;;
76105;SDS011;64832;45.274;5.880;2022-12-18T20:26:54;9.75;;;8.45;;
76105;SDS011;64832;45.274;5.880;2022-12-18T20:29:20;12.00;;;8.50;;
76105;SDS011;64832;45.274;5.880;2022-12-18T20:31:45;11.02;;;7.72;;
76105;SDS011;64832;45.274;5.880;2022-12-18T20:34:11;12.65;;;8.70;;
76105;SDS011;64832;45.274;5.880;2022-12-18T20:36:36;10.43;;;7.60;;
76105;SDS011;64832;45.274;5.880;2022-12-18T20:39:02;12.52;;;7.85;;
76105;SDS011;64832;45.274;5.880;2022-12-18T20:41:29;8.57;;;7.63;;
76105;SDS011;64832;45.274;5.880;2022-12-18T20:43:55;10.95;;;8.20;;
76105;SDS011;64832;45.274;5.880;2022-12-18T20:46:20;12.82;;;7.95;;
76105;SDS011;64832;45.274;5.880;2022-12-18T20:48:46;9.88;;;7.40;;
76105;SDS011;64832;45.274;5.880;2022-12-18T20:51:19;11.20;;;8.05;;
76105;SDS011;64832;45.274;5.880;2022-12-18T20:53:45;9.68;;;8.27;;
76105;SDS011;64832;45.274;5.880;2022-12-18T20:56:14;11.63;;;7.20;;
76105;SDS011;64832;45.274;5.880;2022-12-18T20:58:45;11.70;;;8.13;;
76105;SDS011;64832;45.274;5.880;2022-12-18T21:01:11;9.30;;;7.38;;
76105;SDS011;64832;45.274;5.880;2022-12-18T21:03:42;11.85;;;8.40;;
76105;SDS011;64832;45.274;5.880;2022-12-18T21:06:08;10.68;;;8.10;;
76105;SDS011;64832;45.274;5.880;2022-12-18T21:08:34;9.88;;;8.07;;
76105;SDS011;64832;45.274;5.880;2022-12-18T21:14:16;10.30;;;7.80;;
76105;SDS011;64832;45.274;5.880;2022-12-18T21:16:43;9.75;;;7.72;;
76105;SDS011;64832;45.274;5.880;2022-12-18T21:19:10;9.60;;;7.75;;
76105;SDS011;64832;45.274;5.880;2022-12-18T21:21:37;10.20;;;8.23;;
76105;SDS011;64832;45.274;5.880;2022-12-18T21:24:03;10.43;;;7.32;;
76105;SDS011;64832;45.274;5.880;2022-12-18T21:26:28;12.77;;;7.88;;
76105;SDS011;64832;45.274;5.880;2022-12-18T21:28:57;8.82;;;7.00;;
76105;SDS011;64832;45.274;5.880;2022-12-18T21:31:25;9.38;;;7.63;;
76105;SDS011;64832;45.274;5.880;2022-12-18T21:33:52;10.77;;;8.00;;
76105;SDS011;64832;45.274;5.880;2022-12-18T21:36:18;11.57;;;7.43;;
76105;SDS011;64832;45.274;5.880;2022-12-18T21:38:43;10.63;;;8.05;;
76105;SDS011;64832;45.274;5.880;2022-12-18T21:41:09;9.77;;;7.28;;
76105;SDS011;64832;45.274;5.880;2022-12-18T21:43:54;9.25;;;7.82;;
76105;SDS011;64832;45.274;5.880;2022-12-18T21:46:34;9.32;;;7.65;;
76105;SDS011;64832;45.274;5.880;2022-12-18T21:49:05;9.98;;;7.50;;
76105;SDS011;64832;45.274;5.880;2022-12-18T21:51:32;9.63;;;6.68;;
76105;SDS011;64832;45.274;5.880;2022-12-18T21:53:58;9.25;;;7.13;;
76105;SDS011;64832;45.274;5.880;2022-12-18T21:56:23;8.98;;;8.07;;
76105;SDS011;64832;45.274;5.880;2022-12-18T21:58:50;11.65;;;7.78;;
76105;SDS011;64832;45.274;5.880;2022-12-18T22:01:16;8.02;;;6.88;;
76105;SDS011;64832;45.274;5.880;2022-12-18T22:03:42;8.55;;;7.25;;
76105;SDS011;64832;45.274;5.880;2022-12-18T22:06:09;9.00;;;7.32;;
76105;SDS011;64832;45.274;5.880;2022-12-18T22:08:35;9.32;;;7.07;;
76105;SDS011;64832;45.274;5.880;2022-12-18T22:11:00;10.35;;;7.32;;
76105;SDS011;64832;45.274;5.880;2022-12-18T22:13:25;9.10;;;6.90;;
76105;SDS011;64832;45.274;5.880;2022-12-18T22:15:51;9.77;;;6.93;;
76105;SDS011;64832;45.274;5.880;2022-12-18T22:18:16;8.38;;;6.82;;
76105;SDS011;64832;45.274;5.880;2022-12-18T22:20:42;9.85;;;6.85;;
76105;SDS011;64832;45.274;5.880;2022-12-18T22:23:07;8.00;;;6.68;;
76105;SDS011;64832;45.274;5.880;2022-12-18T22:25:33;8.50;;;6.88;;
76105;SDS011;64832;45.274;5.880;2022-12-18T22:27:59;8.27;;;6.88;;
76105;SDS011;64832;45.274;5.880;2022-12-18T22:30:43;8.95;;;6.57;;
76105;SDS011;64832;45.274;5.880;2022-12-18T22:33:09;9.43;;;6.88;;
76105;SDS011;64832;45.274;5.880;2022-12-18T22:35:34;8.75;;;7.10;;
76105;SDS011;64832;45.274;5.880;2022-12-18T22:38:00;8.68;;;6.70;;
76105;SDS011;64832;45.274;5.880;2022-12-18T22:40:26;10.23;;;7.20;;
76105;SDS011;64832;45.274;5.880;2022-12-18T22:42:52;9.43;;;7.35;;
76105;SDS011;64832;45.274;5.880;2022-12-18T22:45:18;11.60;;;7.45;;
76105;SDS011;64832;45.274;5.880;2022-12-18T22:47:44;10.07;;;7.10;;
76105;SDS011;64832;45.274;5.880;2022-12-18T22:50:11;9.00;;;6.93;;
76105;SDS011;64832;45.274;5.880;2022-12-18T22:52:37;9.07;;;7.20;;
76105;SDS011;64832;45.274;5.880;2022-12-18T22:55:03;8.13;;;6.53;;
76105;SDS011;64832;45.274;5.880;2022-12-18T22:57:30;9.85;;;7.20;;
76105;SDS011;64832;45.274;5.880;2022-12-18T22:59:55;8.20;;;6.65;;
76105;SDS011;64832;45.274;5.880;2022-12-18T23:02:20;7.82;;;6.55;;
76105;SDS011;64832;45.274;5.880;2022-12-18T23:04:46;9.32;;;6.95;;
76105;SDS011;64832;45.274;5.880;2022-12-18T23:07:11;8.75;;;6.90;;
76105;SDS011;64832;45.274;5.880;2022-12-18T23:09:37;9.98;;;6.82;;
